Time;durP1;ratioP1;P1;durP2;ratioP2;P2;SDS_P1;SDS_P2;PMS_P1;PMS_P2;Temp;Humidity;BMP_temperature;BMP_pressure;BME280_temperature;BME280_humidity;BME280_pressure;Samples;Min_cycle;Max_cycle;Signal;HPM_P1;HPM_P2
2024/03/02 00:00:22;;;;;;;;;;;;;;;8.18;100.00;100156.03;4987739;28;20004;-74
2024/03/02 00:02:49;;;;;;;;;;;;;;;8.22;100.00;100156.22;4992569;28;19914;-75
2024/03/02 00:05:18;;;;;;;;;;;;;;;8.24;100.00;100157.16;4991955;28;20374;-75
2024/03/02 00:07:45;;;;;;;;;;;;;;;8.29;100.00;100161.59;4991901;28;19917;-75
2024/03/02 00:10:11;;;;;;;;;;;;;;;8.35;100.00;100156.69;4991811;28;20432;-74
2024/03/02 00:12:37;;;;;;;;;;;;;;;8.40;100.00;100157.78;4991924;28;19965;-75
2024/03/02 00:15:06;;;;;;;;;;;;;;;8.35;100.00;100155.03;4992289;28;19918;-77
2024/03/02 00:17:31;;;;;;;;;;;;;;;8.36;100.00;100158.47;4993049;28;20297;-73
2024/03/02 00:19:56;;;;;;;;;;;;;;;8.41;100.00;100149.22;5014472;28;19917;-75
2024/03/02 00:22:22;;;;;;;;;;;;;;;8.45;100.00;100146.00;5014113;28;19913;-72
2024/03/02 00:24:47;;;;;;;;;;;;;;;8.48;100.00;100141.00;5014201;28;19936;-74
2024/03/02 00:27:13;;;;;;;;;;;;;;;8.39;100.00;100138.91;5019007;28;20407;-79
2024/03/02 00:29:40;;;;;;;;;;;;;;;8.42;100.00;100128.75;5013759;28;19971;-74
2024/03/02 00:32:11;;;;;;;;;;;;;;;8.46;100.00;100131.44;5013747;28;20309;-76
2024/03/02 00:34:36;;;;;;;;;;;;;;;8.43;100.00;100134.75;5010116;28;19921;-73
2024/03/02 00:37:02;;;;;;;;;;;;;;;8.40;100.00;100137.22;5013990;28;20305;-73
2024/03/02 00:39:28;;;;;;;;;;;;;;;8.28;100.00;100132.44;5018415;28;19925;-74
2024/03/02 00:41:53;;;;;;;;;;;;;;;8.29;100.00;100130.72;5013871;28;19929;-74
2024/03/02 00:44:22;;;;;;;;;;;;;;;8.16;100.00;100129.38;5013481;28;19928;-73
2024/03/02 00:46:48;;;;;;;;;;;;;;;8.15;100.00;100120.78;5014327;28;19913;-73
2024/03/02 00:49:21;;;;;;;;;;;;;;;8.20;100.00;100124.41;5013641;28;19923;-73
2024/03/02 00:51:48;;;;;;;;;;;;;;;8.22;100.00;100122.81;5013619;28;20031;-74
2024/03/02 00:54:14;;;;;;;;;;;;;;;8.24;100.00;100123.72;5013669;28;19940;-74
2024/03/02 00:56:41;;;;;;;;;;;;;;;8.29;100.00;100112.72;5013085;28;20016;-73
2024/03/02 00:59:06;;;;;;;;;;;;;;;8.29;100.00;100113.63;5013107;28;20301;-75
2024/03/02 01:01:31;;;;;;;;;;;;;;;8.33;100.00;100104.34;5013198;28;19924;-75
2024/03/02 01:03:57;;;;;;;;;;;;;;;8.40;100.00;100109.78;5012994;28;20020;-74
2024/03/02 01:06:22;;;;;;;;;;;;;;;8.38;100.00;100102.81;5013538;28;19949;-73
2024/03/02 01:08:50;;;;;;;;;;;;;;;8.40;100.00;100101.19;5015044;28;20343;-73
2024/03/02 01:11:16;;;;;;;;;;;;;;;8.43;100.00;100096.16;5020110;28;20024;-74
2024/03/02 01:13:41;;;;;;;;;;;;;;;8.39;100.00;100099.44;5021698;28;20029;-74
2024/03/02 01:16:06;;;;;;;;;;;;;;;8.42;100.00;100105.59;5023359;28;19917;-72
2024/03/02 01:18:32;;;;;;;;;;;;;;;8.46;100.00;100100.56;5024817;28;19918;-74
2024/03/02 01:20:57;;;;;;;;;;;;;;;8.45;100.00;100106.50;5024092;28;19947;-73
2024/03/02 01:23:23;;;;;;;;;;;;;;;8.47;100.00;100102.34;5020746;28;19921;-74
2024/03/02 01:25:49;;;;;;;;;;;;;;;8.41;100.00;100098.69;5022182;28;19970;-73
2024/03/02 01:28:14;;;;;;;;;;;;;;;8.40;100.00;100101.19;5021628;28;19917;-73
2024/03/02 01:30:40;;;;;;;;;;;;;;;8.39;100.00;100102.03;5021761;28;20004;-74
2024/03/02 01:33:06;;;;;;;;;;;;;;;8.48;100.00;100099.81;5020761;28;19981;-76
2024/03/02 01:35:32;;;;;;;;;;;;;;;8.50;100.00;100097.31;5021532;28;20004;-74
2024/03/02 01:37:57;;;;;;;;;;;;;;;8.41;100.00;100110.66;5026969;28;19948;-74
2024/03/02 01:40:26;;;;;;;;;;;;;;;8.41;100.00;100108.97;5022544;28;20018;-73
2024/03/02 01:42:51;;;;;;;;;;;;;;;8.47;100.00;100112.63;5016329;28;19913;-74
2024/03/02 01:45:17;;;;;;;;;;;;;;;8.49;100.00;100101.59;5020878;28;20407;-74
2024/03/02 01:47:42;;;;;;;;;;;;;;;8.54;100.00;100112.94;5029162;28;20299;-74
2024/03/02 01:50:08;;;;;;;;;;;;;;;8.58;100.00;100109.69;5022501;28;19935;-72
2024/03/02 01:52:34;;;;;;;;;;;;;;;8.46;100.00;100103.13;5021079;28;19917;-76
2024/03/02 01:54:59;;;;;;;;;;;;;;;8.35;100.00;100097.53;5021089;28;19920;-73
2024/03/02 01:57:24;;;;;;;;;;;;;;;8.39;100.00;100094.31;5020604;28;19921;-74
2024/03/02 01:59:50;;;;;;;;;;;;;;;8.45;100.00;100091.06;5021708;28;19924;-72
2024/03/02 02:02:16;;;;;;;;;;;;;;;8.48;100.00;100089.53;5022279;28;20357;-73
2024/03/02 02:04:41;;;;;;;;;;;;;;;8.55;100.00;100090.66;5021715;28;19921;-73
2024/03/02 02:07:06;;;;;;;;;;;;;;;8.58;100.00;100090.78;5020118;28;19953;-74
2024/03/02 02:09:32;;;;;;;;;;;;;;;8.54;100.00;100091.47;5019717;28;20382;-75
2024/03/02 02:11:57;;;;;;;;;;;;;;;8.53;100.00;100082.00;5011891;28;20408;-73
2024/03/02 02:14:23;;;;;;;;;;;;;;;8.55;100.00;100081.25;5012021;28;19921;-74
2024/03/02 02:16:48;;;;;;;;;;;;;;;8.52;100.00;100086.28;5012768;28;19914;-74
2024/03/02 02:19:13;;;;;;;;;;;;;;;8.52;100.00;100090.53;5011957;28;20377;-73
2024/03/02 02:21:41;;;;;;;;;;;;;;;8.49;100.00;100082.72;5011759;28;19925;-73
2024/03/02 02:24:07;;;;;;;;;;;;;;;8.45;100.00;100089.41;5011626;28;19961;-72
2024/03/02 02:26:32;;;;;;;;;;;;;;;8.41;100.00;100079.78;5011812;28;19948;-73
2024/03/02 02:28:57;;;;;;;;;;;;;;;8.35;100.00;100085.59;5011611;28;19917;-73
2024/03/02 02:31:23;;;;;;;;;;;;;;;8.36;100.00;100084.78;5012429;28;19921;-73
2024/03/02 02:33:48;;;;;;;;;;;;;;;8.37;100.00;100083.06;5011365;28;19914;-73
2024/03/02 02:36:14;;;;;;;;;;;;;;;8.33;100.00;100083.75;5011898;28;19917;-73
2024/03/02 02:38:42;;;;;;;;;;;;;;;8.23;100.00;100083.38;4984013;28;19913;-74
2024/03/02 02:41:08;;;;;;;;;;;;;;;8.19;100.00;100086.66;5011453;28;20004;-75
2024/03/02 02:43:33;;;;;;;;;;;;;;;8.18;100.00;100090.03;5011407;28;20004;-75
2024/03/02 02:45:58;;;;;;;;;;;;;;;8.13;100.00;100083.84;5011807;28;19914;-71
2024/03/02 02:48:24;;;;;;;;;;;;;;;8.14;100.00;100079.56;5011439;28;19931;-73
2024/03/02 02:50:49;;;;;;;;;;;;;;;8.05;100.00;100078.38;5011029;28;20011;-73
2024/03/02 02:53:14;;;;;;;;;;;;;;;8.03;100.00;100080.00;5011727;28;20356;-74
2024/03/02 02:55:40;;;;;;;;;;;;;;;7.98;100.00;100075.50;5011369;28;19924;-73
2024/03/02 02:58:14;;;;;;;;;;;;;;;8.01;100.00;100073.06;5011249;28;19975;-76
2024/03/02 03:00:40;;;;;;;;;;;;;;;8.03;100.00;100068.88;5010953;28;19917;-73
2024/03/02 03:03:05;;;;;;;;;;;;;;;8.05;100.00;100070.69;5012276;28;19959;-75
2024/03/02 03:05:30;;;;;;;;;;;;;;;8.16;100.00;100071.13;5010959;28;19925;-72
2024/03/02 03:07:56;;;;;;;;;;;;;;;8.24;100.00;100076.56;5010899;28;19917;-74
2024/03/02 03:10:23;;;;;;;;;;;;;;;8.25;100.00;100078.31;5020519;28;19921;-73
2024/03/02 03:12:49;;;;;;;;;;;;;;;8.30;100.00;100079.38;5017638;28;20320;-77
2024/03/02 03:15:15;;;;;;;;;;;;;;;8.30;100.00;100081.06;5023063;28;19909;-73
2024/03/02 03:17:41;;;;;;;;;;;;;;;8.32;100.00;100082.00;4999467;28;20412;-75
2024/03/02 03:20:09;;;;;;;;;;;;;;;8.36;100.00;100089.00;5022471;28;20007;-72
2024/03/02 03:22:35;;;;;;;;;;;;;;;8.37;100.00;100088.22;4978059;28;19916;-72
2024/03/02 03:25:00;;;;;;;;;;;;;;;8.30;100.00;100083.63;5018589;28;19925;-76
2024/03/02 03:27:26;;;;;;;;;;;;;;;8.39;100.00;100084.00;5020601;28;20340;-73
2024/03/02 03:29:52;;;;;;;;;;;;;;;8.39;100.00;100084.00;5020876;28;20387;-74
2024/03/02 03:32:17;;;;;;;;;;;;;;;8.38;100.00;100077.97;5023519;28;19967;-73
2024/03/02 03:34:42;;;;;;;;;;;;;;;8.39;100.00;100076.28;5022018;28;19912;-74
2024/03/02 03:37:08;;;;;;;;;;;;;;;8.38;100.00;100069.38;5018568;28;20027;-74
2024/03/02 03:39:34;;;;;;;;;;;;;;;8.41;100.00;100077.22;5018823;28;20464;-73
2024/03/02 03:41:59;;;;;;;;;;;;;;;8.43;100.00;100081.59;5023934;28;20368;-73
2024/03/02 03:44:24;;;;;;;;;;;;;;;8.36;100.00;100084.78;5017533;28;20353;-73
2024/03/02 03:46:50;;;;;;;;;;;;;;;8.39;100.00;100084.00;5027093;28;19913;-74
2024/03/02 03:49:15;;;;;;;;;;;;;;;8.26;100.00;100080.06;5018984;28;20393;-72
2024/03/02 03:51:40;;;;;;;;;;;;;;;8.28;100.00;100069.84;5020252;28;20028;-73
2024/03/02 03:54:06;;;;;;;;;;;;;;;8.28;100.00;100065.56;5020437;28;19940;-75
2024/03/02 03:56:31;;;;;;;;;;;;;;;8.36;100.00;100074.47;5017719;28;19925;-72
2024/03/02 03:58:57;;;;;;;;;;;;;;;8.37;100.00;100073.66;5014489;28;19917;-77
2024/03/02 04:01:22;;;;;;;;;;;;;;;8.38;100.00;100064.25;5018585;28;19967;-72
2024/03/02 04:03:48;;;;;;;;;;;;;;;8.40;100.00;100055.78;5018258;28;20289;-71
2024/03/02 04:06:13;;;;;;;;;;;;;;;8.43;100.00;100062.72;5019934;28;20392;-74
2024/03/02 04:08:39;;;;;;;;;;;;;;;8.40;100.00;100047.19;5021265;28;21118;-72
2024/03/02 04:11:04;;;;;;;;;;;;;;;8.49;100.00;100063.00;4990919;28;19925;-78
2024/03/02 04:13:29;;;;;;;;;;;;;;;8.45;100.00;100065.34;4990648;28;20016;-78
2024/03/02 04:15:55;;;;;;;;;;;;;;;8.42;100.00;100059.28;4991001;28;19925;-73
2024/03/02 04:18:20;;;;;;;;;;;;;;;8.47;100.00;100059.47;4990755;28;19952;-74
2024/03/02 04:20:45;;;;;;;;;;;;;;;8.51;100.00;100066.50;4990139;28;19922;-74
2024/03/02 04:23:11;;;;;;;;;;;;;;;8.55;100.00;100068.38;4990597;28;19984;-74
2024/03/02 04:25:36;;;;;;;;;;;;;;;8.62;100.00;100072.06;4990284;28;19921;-77
2024/03/02 04:28:01;;;;;;;;;;;;;;;8.55;100.00;100078.66;4990546;28;20378;-73
2024/03/02 04:30:27;;;;;;;;;;;;;;;8.53;100.00;100072.56;4991042;28;19918;-74
2024/03/02 04:32:52;;;;;;;;;;;;;;;8.59;100.00;100066.81;4990741;28;19994;-74
2024/03/02 04:35:17;;;;;;;;;;;;;;;8.61;100.00;100067.75;4990564;28;19957;-73
2024/03/02 04:37:43;;;;;;;;;;;;;;;8.63;100.00;100068.66;4990924;28;19913;-74
2024/03/02 04:40:09;;;;;;;;;;;;;;;8.61;100.00;100065.19;4990541;28;20345;-75
2024/03/02 04:42:34;;;;;;;;;;;;;;;8.62;100.00;100060.91;4991249;28;19917;-74
2024/03/02 04:45:00;;;;;;;;;;;;;;;8.67;100.00;100068.00;4990721;28;19917;-74
2024/03/02 04:47:25;;;;;;;;;;;;;;;8.70;100.00;100068.09;4994391;28;20016;-74
2024/03/02 04:49:51;;;;;;;;;;;;;;;8.69;100.00;100073.19;4994191;28;20285;-74
2024/03/02 04:52:17;;;;;;;;;;;;;;;8.70;100.00;100075.81;4994878;28;20291;-74
2024/03/02 04:57:26;;;;;;;;;;;;;;;8.69;100.00;100081.78;4994353;28;19933;-74
2024/03/02 04:59:51;;;;;;;;;;;;;;;8.69;100.00;100084.34;4993932;28;19917;-74
2024/03/02 05:02:16;;;;;;;;;;;;;;;8.73;100.00;100080.19;4994133;28;20441;-74
2024/03/02 05:04:42;;;;;;;;;;;;;;;8.71;100.00;100074.09;4993785;28;20357;-73
2024/03/02 05:07:07;;;;;;;;;;;;;;;8.64;100.00;100077.28;4994202;28;19918;-78
2024/03/02 05:09:32;;;;;;;;;;;;;;;8.63;100.00;100078.09;5005679;28;19928;-74
2024/03/02 05:14:41;;;;;;;;;;;;;;;8.62;100.00;100086.63;5013956;28;20008;-73
2024/03/02 05:17:07;;;;;;;;;;;;;;;8.62;100.00;100087.50;5024446;28;19952;-74
2024/03/02 05:19:32;;;;;;;;;;;;;;;8.60;100.00;100083.09;5021799;28;19960;-73
2024/03/02 05:21:58;;;;;;;;;;;;;;;8.56;100.00;100076.97;5022988;28;19917;-73
2024/03/02 05:24:23;;;;;;;;;;;;;;;8.55;100.00;100078.66;5026188;28;20435;-74
2024/03/02 05:26:49;;;;;;;;;;;;;;;8.60;100.00;100075.38;5023237;28;19924;-74
2024/03/02 05:29:14;;;;;;;;;;;;;;;8.61;100.00;100072.91;5022847;28;20011;-72
2024/03/02 05:31:40;;;;;;;;;;;;;;;8.67;100.00;100074.81;4985734;28;20372;-72
2024/03/02 05:34:05;;;;;;;;;;;;;;;8.67;100.00;100070.56;5021448;28;20412;-75
2024/03/02 05:36:31;;;;;;;;;;;;;;;8.64;100.00;100073.00;5023419;28;20373;-75
2024/03/02 05:38:57;;;;;;;;;;;;;;;8.62;100.00;100076.34;5028291;28;19924;-75
2024/03/02 05:41:22;;;;;;;;;;;;;;;8.67;100.00;100069.66;5022615;28;20315;-74
2024/03/02 05:43:47;;;;;;;;;;;;;;;8.71;100.00;100076.66;5020736;28;19917;-74
2024/03/02 05:46:13;;;;;;;;;;;;;;;8.73;100.00;100072.47;5024847;28;19916;-73
2024/03/02 05:48:38;;;;;;;;;;;;;;;8.73;100.00;100069.91;5025743;28;20015;-73
2024/03/02 05:51:03;;;;;;;;;;;;;;;8.74;100.00;100077.66;5022595;28;19952;-73
2024/03/02 05:53:29;;;;;;;;;;;;;;;8.74;100.00;100081.94;5022797;28;19963;-77
2024/03/02 05:55:55;;;;;;;;;;;;;;;8.76;100.00;100087.16;5004962;28;19917;-74
2024/03/02 06:01:05;;;;;;;;;;;;;;;8.80;100.00;100095.06;5019583;28;19967;-74
2024/03/02 06:03:30;;;;;;;;;;;;;;;8.80;100.00;100089.91;5022317;28;19952;-74
2024/03/02 06:05:57;;;;;;;;;;;;;;;8.80;100.00;100079.63;5019509;28;20356;-73
2024/03/02 06:08:42;;;;;;;;;;;;;;;8.80;100.00;100078.72;5021820;28;19921;-74
2024/03/02 06:11:07;;;;;;;;;;;;;;;8.82;100.00;100085.72;4973050;28;19922;-73
2024/03/02 06:13:33;;;;;;;;;;;;;;;8.81;100.00;100081.38;4980093;28;20018;-74
2024/03/02 06:15:58;;;;;;;;;;;;;;;8.79;100.00;100075.28;4980350;28;19918;-73
2024/03/02 06:18:23;;;;;;;;;;;;;;;8.80;100.00;100086.44;4980195;28;19924;-73
2024/03/02 06:20:49;;;;;;;;;;;;;;;8.81;100.00;100095.91;4979996;28;19918;-78
2024/03/02 06:23:14;;;;;;;;;;;;;;;8.79;100.00;100089.84;4977921;28;19925;-76
2024/03/02 06:25:40;;;;;;;;;;;;;;;8.80;100.00;100092.47;4980315;28;19913;-74
2024/03/02 06:28:05;;;;;;;;;;;;;;;8.75;100.00;100088.88;4979262;28;19913;-78
2024/03/02 06:30:30;;;;;;;;;;;;;;;8.80;100.00;100096.72;4978044;28;19918;-74
2024/03/02 06:32:56;;;;;;;;;;;;;;;8.77;100.00;100102.66;4978125;28;20386;-77
2024/03/02 06:35:21;;;;;;;;;;;;;;;8.83;100.00;100086.56;4979737;28;20293;-73
2024/03/02 06:37:47;;;;;;;;;;;;;;;8.87;100.00;100091.00;4979784;28;20305;-73
2024/03/02 06:40:12;;;;;;;;;;;;;;;8.96;100.00;100090.47;4984420;28;19910;-75
2024/03/02 06:42:37;;;;;;;;;;;;;;;9.05;100.00;100086.53;4989739;28;20373;-74
2024/03/02 06:45:03;;;;;;;;;;;;;;;9.03;100.00;100085.63;4991792;28;19918;-74
2024/03/02 06:47:28;;;;;;;;;;;;;;;9.07;100.00;100091.75;4991670;28;19921;-72
2024/03/02 06:49:54;;;;;;;;;;;;;;;9.11;100.00;100083.34;4992105;28;20349;-73
2024/03/02 06:52:20;;;;;;;;;;;;;;;9.08;100.00;100070.31;4992572;28;20307;-73
2024/03/02 06:54:46;;;;;;;;;;;;;;;8.98;100.00;100075.97;4991367;28;20282;-72
2024/03/02 06:57:12;;;;;;;;;;;;;;;8.95;100.00;100081.88;4991515;28;19924;-74
2024/03/02 06:59:37;;;;;;;;;;;;;;;8.98;100.00;100086.25;4991753;28;19918;-72
2024/03/02 07:02:02;;;;;;;;;;;;;;;8.99;100.00;100106.91;4991937;28;19914;-73
2024/03/02 07:04:28;;;;;;;;;;;;;;;8.90;100.00;100122.91;4991465;28;19917;-74
2024/03/02 07:06:53;;;;;;;;;;;;;;;8.89;100.00;100110.84;4992347;28;19913;-76
2024/03/02 07:09:22;;;;;;;;;;;;;;;8.92;100.00;100112.66;5001162;28;19928;-73
2024/03/02 07:11:47;;;;;;;;;;;;;;;8.85;100.00;100100.38;5017484;28;19917;-74
2024/03/02 07:14:13;;;;;;;;;;;;;;;8.92;100.00;100102.34;5020912;28;19925;-75
2024/03/02 07:16:40;;;;;;;;;;;;;;;8.94;100.00;100105.00;5026671;28;19913;-72
2024/03/02 07:19:05;;;;;;;;;;;;;;;9.01;100.00;100094.09;5020017;28;19917;-72
2024/03/02 07:21:32;;;;;;;;;;;;;;;9.00;100.00;100111.25;5021001;28;20392;-72
2024/03/02 07:23:58;;;;;;;;;;;;;;;9.12;100.00;100100.53;4962478;28;19960;-73
2024/03/02 07:26:25;;;;;;;;;;;;;;;9.23;100.00;100081.19;5023219;28;20431;-78
2024/03/02 07:28:51;;;;;;;;;;;;;;;9.29;100.00;100089.97;5018798;28;19924;-76
2024/03/02 07:31:16;;;;;;;;;;;;;;;9.25;100.00;100099.28;5019702;28;19918;-74
2024/03/02 07:33:43;;;;;;;;;;;;;;;9.19;100.00;100111.94;5020150;28;19917;-73
2024/03/02 07:36:09;;;;;;;;;;;;;;;9.18;100.00;100108.50;4984904;28;20315;-73
2024/03/02 07:38:35;;;;;;;;;;;;;;;9.29;100.00;100101.13;5020412;28;19920;-74
2024/03/02 07:41:00;;;;;;;;;;;;;;;9.36;100.00;100108.28;5020698;28;19944;-74
2024/03/02 07:43:26;;;;;;;;;;;;;;;9.38;100.00;100098.91;5025550;28;20351;-73
2024/03/02 07:45:51;;;;;;;;;;;;;;;9.44;100.00;100095.66;5002074;28;19913;-72
2024/03/02 07:48:16;;;;;;;;;;;;;;;9.41;100.00;100103.28;5026385;28;19917;-73
2024/03/02 07:50:43;;;;;;;;;;;;;;;9.15;100.00;100107.50;5022737;28;19920;-74
2024/03/02 07:53:08;;;;;;;;;;;;;;;9.19;100.00;100099.91;5022578;28;19925;-73
2024/03/02 07:55:34;;;;;;;;;;;;;;;9.28;100.00;100104.53;5025373;28;19917;-75
2024/03/02 07:58:00;;;;;;;;;;;;;;;9.28;100.00;100101.09;5019521;28;20273;-75
2024/03/02 08:00:27;;;;;;;;;;;;;;;9.33;100.00;100104.69;5018207;28;20376;-74
2024/03/02 08:02:52;;;;;;;;;;;;;;;9.32;100.00;100106.41;5018391;28;19921;-73
2024/03/02 08:05:22;;;;;;;;;;;;;;;9.31;100.00;100108.91;5020033;28;19975;-76
2024/03/02 08:07:47;;;;;;;;;;;;;;;9.26;100.00;100110.44;4965333;28;19957;-73
2024/03/02 08:10:13;;;;;;;;;;;;;;;9.32;100.00;100101.25;5019976;28;20459;-73
2024/03/02 08:12:39;;;;;;;;;;;;;;;9.44;100.00;100105.09;5020288;28;19921;-74
2024/03/02 08:15:05;;;;;;;;;;;;;;;9.45;100.00;100099.13;5020122;28;20043;-77
2024/03/02 08:17:30;;;;;;;;;;;;;;;9.59;100.00;100094.44;5019033;28;19944;-74
2024/03/02 08:19:55;;;;;;;;;;;;;;;9.69;100.00;100087.09;5019350;28;19924;-73
2024/03/02 08:22:21;;;;;;;;;;;;;;;9.81;100.00;100086.63;5022799;28;19920;-73
2024/03/02 08:24:47;;;;;;;;;;;;;;;9.94;100.00;100087.91;5022447;28;19917;-72
2024/03/02 08:27:12;;;;;;;;;;;;;;;10.09;100.00;100096.97;5022582;28;19925;-74
2024/03/02 08:29:38;;;;;;;;;;;;;;;10.15;100.00;100097.19;5027034;28;19913;-74
2024/03/02 08:32:03;;;;;;;;;;;;;;;10.15;100.00;100095.47;5021689;28;19917;-74
2024/03/02 08:34:29;;;;;;;;;;;;;;;10.25;100.00;100095.78;5024362;28;20295;-74
2024/03/02 08:36:54;;;;;;;;;;;;;;;10.22;100.00;100096.56;5024280;28;19917;-74
2024/03/02 08:39:19;;;;;;;;;;;;;;;10.24;100.00;100106.94;5022812;28;19917;-74
2024/03/02 08:41:45;;;;;;;;;;;;;;;10.23;100.00;100102.59;5021834;28;19918;-74
2024/03/02 08:44:11;;;;;;;;;;;;;;;10.25;100.00;100103.53;5022498;28;19921;-73
2024/03/02 08:46:38;;;;;;;;;;;;;;;10.07;100.00;100108.94;5024649;28;20019;-72
2024/03/02 08:49:05;;;;;;;;;;;;;;;9.76;100.00;100108.81;4982420;28;20557;-77
2024/03/02 08:51:31;;;;;;;;;;;;;;;9.79;100.00;100106.31;5015098;28;20292;-73
2024/03/02 08:53:57;;;;;;;;;;;;;;;9.72;100.00;100106.94;5021112;28;19956;-74
2024/03/02 08:56:23;;;;;;;;;;;;;;;9.69;100.00;100120.63;5030059;28;20426;-74
2024/03/02 08:58:49;;;;;;;;;;;;;;;9.75;100.00;100112.19;5021797;28;19936;-75
2024/03/02 09:01:14;;;;;;;;;;;;;;;9.75;100.00;100109.63;5021678;28;19920;-73
2024/03/02 09:03:44;;;;;;;;;;;;;;;9.71;100.00;100105.19;5001566;28;19924;-73
2024/03/02 09:06:09;;;;;;;;;;;;;;;9.82;100.00;100102.97;5023349;28;19920;-76
2024/03/02 09:08:36;;;;;;;;;;;;;;;9.94;100.00;100107.66;5018108;28;19929;-74
2024/03/02 09:11:02;;;;;;;;;;;;;;;9.93;100.00;100103.31;5020124;28;19924;-73
2024/03/02 09:13:27;;;;;;;;;;;;;;;9.98;100.00;100101.78;5020470;28;19917;-72
2024/03/02 09:15:52;;;;;;;;;;;;;;;10.13;100.00;100094.56;5020557;28;19924;-73
2024/03/02 09:18:18;;;;;;;;;;;;;;;10.19;100.00;100099.91;5020583;28;20431;-74
2024/03/02 09:20:43;;;;;;;;;;;;;;;10.34;100.00;100096.06;5020045;28;20894;-73
2024/03/02 09:23:08;;;;;;;;;;;;;;;10.50;100.00;100093.19;5020276;28;19925;-73
2024/03/02 09:25:34;;;;;;;;;;;;;;;10.64;100.00;100105.63;5019634;28;19928;-75
2024/03/02 09:27:59;;;;;;;;;;;;;;;10.74;100.00;100104.22;5022162;28;19921;-74
2024/03/02 09:30:24;;;;;;;;;;;;;;;10.76;100.00;100110.31;5016606;28;19991;-74
2024/03/02 09:32:50;;;;;;;;;;;;;;;10.81;100.00;100109.59;5017274;28;20384;-76
2024/03/02 09:35:16;;;;;;;;;;;;;;;10.92;100.00;100112.50;5020654;28;20036;-78
2024/03/02 09:37:42;;;;;;;;;;;;;;;10.99;100.00;100114.44;5019862;28;20412;-74
2024/03/02 09:40:08;;;;;;;;;;;;;;;11.07;100.00;100116.38;5021563;28;19917;-77
2024/03/02 09:42:33;;;;;;;;;;;;;;;11.13;100.00;100116.56;5025987;28;19913;-73
2024/03/02 09:44:59;;;;;;;;;;;;;;;11.16;100.00;100114.06;5025624;28;19917;-75
2024/03/02 09:47:24;;;;;;;;;;;;;;;11.27;100.00;100112.66;5027304;28;19937;-78
2024/03/02 09:49:49;;;;;;;;;;;;;;;11.28;100.00;100113.53;5026062;28;20426;-78
2024/03/02 09:52:15;;;;;;;;;;;;;;;11.32;100.00;100115.38;5021418;28;19952;-75
2024/03/02 09:54:41;;;;;;;;;;;;;;;11.37;100.00;100105.16;5024130;28;19920;-72
2024/03/02 09:57:06;;;;;;;;;;;;;;;11.40;100.00;100111.31;5023137;28;19918;-78
2024/03/02 09:59:32;;;;;;;;;;;;;;;11.44;100.00;100107.06;5023127;28;19923;-75
2024/03/02 10:02:01;;;;;;;;;;;;;;;11.46;100.00;100103.72;5022849;28;20297;-76
2024/03/02 10:04:28;;;;;;;;;;;;;;;11.54;100.00;100098.75;5021494;28;19970;-74
2024/03/02 10:07:12;;;;;;;;;;;;;;;11.54;100.00;100106.50;5013961;28;19925;-75
2024/03/02 10:09:38;;;;;;;;;;;;;;;11.53;100.00;100106.47;5023093;28;20020;-75
2024/03/02 10:12:04;;;;;;;;;;;;;;;11.59;100.00;100092.00;5022540;28;20000;-75
2024/03/02 10:14:30;;;;;;;;;;;;;;;11.67;100.00;100086.16;5017984;28;19980;-74
2024/03/02 10:17:01;;;;;;;;;;;;;;;10.94;100.00;99970.50;5015748;28;20385;-75
2024/03/02 10:19:26;;;;;;;;;;;;;;;11.81;100.00;100084.78;5018552;28;19972;-73
2024/03/02 10:21:52;;;;;;;;;;;;;;;11.91;100.00;100085.91;5016955;28;19925;-73
2024/03/02 10:24:18;;;;;;;;;;;;;;;11.95;100.00;100087.72;5023158;28;19982;-75
2024/03/02 10:26:44;;;;;;;;;;;;;;;11.96;100.00;100084.31;5018122;28;19925;-74
2024/03/02 10:29:10;;;;;;;;;;;;;;;12.07;100.00;100079.44;5015087;28;20330;-73
2024/03/02 10:31:39;;;;;;;;;;;;;;;12.06;100.00;100082.84;5020955;28;19921;-76
2024/03/02 10:34:05;;;;;;;;;;;;;;;12.03;100.00;100078.47;5020813;28;19913;-76
2024/03/02 10:36:32;;;;;;;;;;;;;;;12.06;100.00;100072.50;5016319;28;19964;-76
2024/03/02 10:38:59;;;;;;;;;;;;;;;12.20;100.00;100058.19;5020445;28;19917;-76
2024/03/02 10:41:26;;;;;;;;;;;;;;;12.25;100.00;100056.59;5024644;28;19975;-73
2024/03/02 10:43:59;;;;;;;;;;;;;;;12.26;100.00;100050.56;5015136;28;20407;-74
2024/03/02 10:46:27;;;;;;;;;;;;;;;12.31;100.00;100048.06;5009853;28;19923;-73
2024/03/02 10:48:53;;;;;;;;;;;;;;;12.40;100.00;100037.94;5019196;28;19913;-76
2024/03/02 10:51:18;;;;;;;;;;;;;;;12.36;100.00;100041.31;5019777;28;19917;-72
2024/03/02 10:53:45;;;;;;;;;;;;;;;12.21;100.00;100021.13;5020046;28;19945;-74
2024/03/02 10:56:13;;;;;;;;;;;;;;;12.18;100.00;100021.03;5015948;28;19921;-76
2024/03/02 10:58:39;;;;;;;;;;;;;;;12.03;100.00;100011.22;5024423;28;19948;-76
2024/03/02 11:01:05;;;;;;;;;;;;;;;12.04;100.00;100019.88;5027924;28;19956;-76
2024/03/02 11:03:33;;;;;;;;;;;;;;;12.09;100.00;100026.88;5016469;28;19917;-72
2024/03/02 11:05:59;;;;;;;;;;;;;;;12.14;100.00;100039.94;5019823;28;19917;-74
2024/03/02 11:08:26;;;;;;;;;;;;;;;12.16;100.00;100048.59;5011119;28;19921;-74
2024/03/02 11:10:54;;;;;;;;;;;;;;;12.12;100.00;100046.78;5010604;28;19924;-73
2024/03/02 11:13:24;;;;;;;;;;;;;;;12.21;100.00;100041.84;5010492;28;19917;-75
2024/03/02 11:15:51;;;;;;;;;;;;;;;12.24;100.00;100041.03;5010495;28;19921;-74
2024/03/02 11:18:17;;;;;;;;;;;;;;;12.25;100.00;100037.56;5008163;28;19922;-74
2024/03/02 11:20:43;;;;;;;;;;;;;;;12.27;100.00;100044.56;5010322;28;19914;-73
2024/03/02 11:23:09;;;;;;;;;;;;;;;12.34;100.00;100042.13;5010055;28;19948;-74
2024/03/02 11:25:35;;;;;;;;;;;;;;;12.32;100.00;100036.88;5010570;28;19988;-73
2024/03/02 11:28:04;;;;;;;;;;;;;;;12.32;100.00;100039.47;5010876;28;19913;-75
2024/03/02 11:30:32;;;;;;;;;;;;;;;12.26;100.00;100034.16;5010111;28;19972;-73
2024/03/02 11:33:10;;;;;;;;;;;;;;;12.32;100.00;100036.00;5009855;28;19917;-77
2024/03/02 11:35:37;;;;;;;;;;;;;;;12.32;100.00;100034.28;5007195;28;19967;-71
2024/03/02 11:38:03;;;;;;;;;;;;;;;12.30;100.00;100023.91;5009536;28;20361;-71
2024/03/02 11:40:29;;;;;;;;;;;;;;;12.28;100.00;100033.34;5009998;28;20047;-75
2024/03/02 11:42:55;;;;;;;;;;;;;;;12.30;100.00;100033.41;5010182;28;20008;-77
2024/03/02 11:45:26;;;;;;;;;;;;;;;12.17;100.00;100028.78;5010643;28;19978;-75
2024/03/02 11:47:55;;;;;;;;;;;;;;;12.15;100.00;100031.34;5010388;28;19952;-74
2024/03/02 11:50:30;;;;;;;;;;;;;;;12.09;100.00;100028.59;5008877;28;20000;-72
2024/03/02 11:52:56;;;;;;;;;;;;;;;12.09;100.00;100020.84;5010953;28;20270;-75
2024/03/02 11:55:21;;;;;;;;;;;;;;;12.06;100.00;100029.41;5009125;28;19924;-72
2024/03/02 11:57:47;;;;;;;;;;;;;;;12.01;100.00;100024.94;5010050;28;19917;-74
2024/03/02 12:00:19;;;;;;;;;;;;;;;11.96;100.00;100030.00;5004649;28;19917;-74
2024/03/02 12:02:59;;;;;;;;;;;;;;;11.97;100.00;100026.59;4982718;28;19917;-72
2024/03/02 12:05:24;;;;;;;;;;;;;;;11.99;100.00;100019.75;5009881;28;19917;-73
2024/03/02 12:07:55;;;;;;;;;;;;;;;12.03;100.00;100018.09;5009636;28;19971;-75
2024/03/02 12:10:20;;;;;;;;;;;;;;;12.03;100.00;100020.69;5017508;28;20004;-73
2024/03/02 12:12:45;;;;;;;;;;;;;;;12.05;100.00;100014.72;5016197;28;20052;-75
2024/03/02 12:15:11;;;;;;;;;;;;;;;12.01;100.00;100009.44;5018483;28;20004;-77
2024/03/02 12:17:38;;;;;;;;;;;;;;;12.01;100.00;100010.28;5016321;28;19918;-75
2024/03/02 12:20:06;;;;;;;;;;;;;;;12.05;100.00;100011.22;5027314;28;19920;-74
2024/03/02 12:22:32;;;;;;;;;;;;;;;12.08;100.00;100006.16;5022152;28;19925;-74
2024/03/02 12:24:57;;;;;;;;;;;;;;;12.08;100.00;100006.16;5015003;28;19921;-75
2024/03/02 12:27:23;;;;;;;;;;;;;;;12.03;100.00;100000.84;4979113;28;20064;-75
2024/03/02 12:29:48;;;;;;;;;;;;;;;12.04;100.00;99997.44;5010191;28;19913;-75
2024/03/02 12:32:14;;;;;;;;;;;;;;;11.94;100.00;100000.63;5011579;28;19914;-77
2024/03/02 12:34:39;;;;;;;;;;;;;;;12.00;100.00;99998.22;5012356;28;19913;-76